Time;durP1;ratioP1;P1;durP2;ratioP2;P2;SDS_P1;SDS_P2;PMS_P1;PMS_P2;Temp;Humidity;BMP_temperature;BMP_pressure;BME280_temperature;BME280_humidity;BME280_pressure;Samples;Min_cycle;Max_cycle;Signal;HPM_P1;HPM_P2
2022/01/03 00:01:48;;;;;;;2.17;0.90;;;26.60;84.00;;;;;;5072865;28;20371;-59
2022/01/03 00:04:17;;;;;;;4.85;1.20;;;26.50;82.90;;;;;;5072592;28;20089;-55
2022/01/03 00:06:44;;;;;;;3.75;1.33;;;26.70;82.30;;;;;;5073025;28;20108;-54
2022/01/03 00:09:12;;;;;;;2.08;0.88;;;26.70;83.30;;;;;;5072171;28;20028;-61
2022/01/03 00:11:41;;;;;;;2.22;0.90;;;26.70;82.10;;;;;;5071344;28;20044;-61
2022/01/03 00:14:08;;;;;;;2.70;1.00;;;26.90;82.30;;;;;;5072971;28;20032;-59
2022/01/03 00:16:36;;;;;;;5.00;1.10;;;26.90;79.10;;;;;;5072525;28;20056;-58
2022/01/03 00:19:03;;;;;;;2.47;1.10;;;26.90;76.70;;;;;;5072841;28;20024;-61
2022/01/03 00:21:44;;;;;;;2.08;0.90;;;27.00;81.60;;;;;;5072585;28;20202;-60
2022/01/03 00:24:13;;;;;;;2.67;1.00;;;27.20;78.10;;;;;;5072068;28;20021;-60
2022/01/03 00:26:44;;;;;;;3.88;1.05;;;27.20;77.70;;;;;;5072635;28;20024;-60
2022/01/03 00:29:12;;;;;;;3.70;1.10;;;27.30;79.40;;;;;;5072607;28;20438;-59
2022/01/03 00:31:42;;;;;;;2.33;1.00;;;27.20;79.30;;;;;;5072876;28;20021;-56
2022/01/03 00:34:12;;;;;;;1.40;0.80;;;27.20;81.20;;;;;;5076122;28;20493;-57
2022/01/03 00:36:40;;;;;;;3.40;1.30;;;27.20;81.40;;;;;;5076303;28;20051;-59
2022/01/03 00:39:09;;;;;;;1.67;0.70;;;27.20;80.40;;;;;;5076313;28;20082;-55
2022/01/03 00:41:41;;;;;;;2.75;1.20;;;27.20;81.10;;;;;;5076096;28;20027;-52
2022/01/03 00:44:09;;;;;;;2.03;0.60;;;27.20;80.80;;;;;;5076186;28;20016;-57
2022/01/03 00:46:37;;;;;;;2.13;0.93;;;27.20;81.50;;;;;;5076043;28;20016;-63
2022/01/03 00:49:05;;;;;;;3.17;0.88;;;27.20;79.50;;;;;;5076098;28;20078;-58
2022/01/03 00:51:34;;;;;;;4.60;1.15;;;27.30;81.40;;;;;;5076175;28;20025;-57
2022/01/03 00:54:01;;;;;;;3.65;1.20;;;27.30;80.10;;;;;;5075108;28;20136;-57
2022/01/03 00:56:46;;;;;;;2.20;0.75;;;27.40;78.80;;;;;;5076242;28;20090;-58
2022/01/03 00:59:20;;;;;;;2.13;1.00;;;27.40;81.10;;;;;;5076044;28;20031;-55
2022/01/03 01:01:50;;;;;;;2.80;0.80;;;27.40;81.00;;;;;;5076492;28;20025;-56
2022/01/03 01:04:21;;;;;;;2.78;0.90;;;27.40;80.80;;;;;;5076268;28;20021;-55
2022/01/03 01:06:53;;;;;;;2.75;1.10;;;27.30;81.30;;;;;;5076003;28;20060;-57
2022/01/03 01:09:23;;;;;;;4.15;0.90;;;27.50;79.20;;;;;;5075698;28;20040;-58
2022/01/03 01:11:53;;;;;;;3.38;0.95;;;27.50;80.70;;;;;;5075565;28;20099;-49
2022/01/03 01:14:22;;;;;;;2.30;0.88;;;27.50;80.90;;;;;;5075530;28;20052;-61
2022/01/03 01:16:49;;;;;;;3.30;1.05;;;27.60;78.10;;;;;;5075727;28;20039;-57
2022/01/03 01:19:19;;;;;;;2.83;0.88;;;27.60;79.60;;;;;;5075800;28;20033;-61
2022/01/03 01:21:50;;;;;;;2.53;1.05;;;27.50;79.90;;;;;;5075463;28;20081;-58
2022/01/03 01:24:20;;;;;;;1.50;0.98;;;27.60;80.50;;;;;;5075266;28;20025;-56
2022/01/03 01:29:37;;;;;;;3.25;0.93;;;27.60;79.50;;;;;;5076128;28;20089;-60
2022/01/03 01:32:06;;;;;;;3.28;0.98;;;27.60;80.30;;;;;;5075487;28;20021;-57
2022/01/03 01:34:39;;;;;;;3.58;1.00;;;27.50;80.30;;;;;;5075016;28;20040;-55
2022/01/03 01:37:07;;;;;;;3.15;0.93;;;27.50;78.90;;;;;;5074257;28;20121;-59
2022/01/03 01:39:34;;;;;;;3.65;1.30;;;27.60;80.90;;;;;;5075072;28;20024;-61
2022/01/03 01:42:04;;;;;;;5.82;1.40;;;27.60;81.10;;;;;;5073847;28;20032;-53
2022/01/03 01:44:38;;;;;;;4.55;1.05;;;27.70;80.40;;;;;;5073830;28;20025;-60
2022/01/03 01:47:07;;;;;;;3.17;1.40;;;27.80;78.70;;;;;;5075217;28;20365;-61
2022/01/03 01:49:45;;;;;;;1.77;0.80;;;27.80;79.40;;;;;;5073872;28;20028;-57
2022/01/03 01:52:21;;;;;;;3.65;1.33;;;27.70;78.50;;;;;;5075014;28;20032;-58
2022/01/03 01:54:56;;;;;;;4.78;1.35;;;27.80;77.80;;;;;;5074930;28;20067;-56
2022/01/03 01:57:39;;;;;;;1.73;0.80;;;27.90;77.80;;;;;;5074005;28;20089;-60
2022/01/03 02:00:10;;;;;;;2.65;1.00;;;27.90;79.90;;;;;;5073859;28;20028;-61
2022/01/03 02:03:16;;;;;;;2.00;1.00;;;27.90;79.40;;;;;;5075134;28;20012;-59
2022/01/03 02:06:00;;;;;;;5.85;0.88;;;27.90;79.80;;;;;;5074830;28;20140;-62
2022/01/03 02:08:32;;;;;;;3.67;1.20;;;27.90;79.60;;;;;;5073678;28;20028;-59
2022/01/03 02:11:13;;;;;;;2.22;0.90;;;27.90;77.60;;;;;;5074641;28;20028;-57
2022/01/03 02:13:42;;;;;;;5.60;1.05;;;27.90;80.50;;;;;;5074904;28;20047;-58
2022/01/03 02:16:11;;;;;;;3.38;0.90;;;27.90;76.20;;;;;;5074429;28;20032;-61
2022/01/03 02:18:38;;;;;;;3.97;1.13;;;28.10;77.10;;;;;;5074611;28;20036;-53
2022/01/03 02:21:06;;;;;;;3.50;0.98;;;28.10;77.30;;;;;;5075220;28;20020;-59
2022/01/03 02:23:34;;;;;;;3.00;1.00;;;28.10;77.40;;;;;;5074928;28;20028;-61
2022/01/03 02:26:01;;;;;;;2.72;0.98;;;28.10;78.90;;;;;;5074161;28;20111;-52
2022/01/03 02:28:29;;;;;;;3.22;1.05;;;28.10;77.60;;;;;;5074375;28;20394;-59
2022/01/03 02:30:56;;;;;;;4.57;0.90;;;28.10;78.10;;;;;;5074276;28;20020;-50
2022/01/03 02:33:24;;;;;;;3.67;1.20;;;28.10;77.30;;;;;;5074415;28;20028;-54
2022/01/03 02:35:51;;;;;;;2.08;0.98;;;28.20;78.10;;;;;;5074005;28;20044;-57
2022/01/03 02:38:19;;;;;;;2.50;0.90;;;28.20;79.20;;;;;;5074015;28;20426;-54
2022/01/03 02:40:47;;;;;;;3.60;1.17;;;28.10;79.10;;;;;;5074317;28;20024;-59
2022/01/03 02:43:14;;;;;;;2.03;1.02;;;28.10;79.60;;;;;;5074474;28;20047;-61
2022/01/03 02:45:41;;;;;;;2.88;1.13;;;28.10;79.60;;;;;;5073876;28;20070;-57
2022/01/03 02:48:11;;;;;;;3.40;1.05;;;28.00;80.00;;;;;;5073820;28;20020;-59
2022/01/03 02:50:39;;;;;;;4.30;0.98;;;28.10;79.70;;;;;;5073970;28;20471;-59
2022/01/03 02:53:10;;;;;;;2.35;0.90;;;28.20;79.20;;;;;;5072475;28;20048;-56
2022/01/03 02:55:37;;;;;;;3.95;1.60;;;28.30;78.80;;;;;;5073571;28;20040;-57
2022/01/03 02:58:08;;;;;;;3.67;1.20;;;28.30;77.40;;;;;;5073560;28;20035;-60
2022/01/03 03:00:53;;;;;;;2.90;1.25;;;28.40;77.90;;;;;;5073995;28;20066;-57
2022/01/03 03:03:22;;;;;;;1.70;0.82;;;28.40;77.60;;;;;;5073563;28;20120;-60
2022/01/03 03:05:50;;;;;;;3.22;1.02;;;28.20;78.00;;;;;;5073855;28;20091;-59
2022/01/03 03:08:18;;;;;;;3.25;0.98;;;28.30;78.60;;;;;;5073300;28;20028;-53
2022/01/03 03:10:46;;;;;;;2.03;0.80;;;28.40;77.70;;;;;;5073608;28;20448;-59
2022/01/03 03:13:13;;;;;;;2.88;0.90;;;28.40;78.60;;;;;;5073677;28;20028;-56
2022/01/03 03:15:41;;;;;;;2.70;0.90;;;28.40;79.00;;;;;;5073460;28;20355;-57
2022/01/03 03:18:09;;;;;;;3.38;0.98;;;28.40;78.90;;;;;;5073367;28;20378;-58
2022/01/03 03:20:37;;;;;;;2.78;0.90;;;28.40;78.30;;;;;;5073382;28;20115;-57
2022/01/03 03:23:05;;;;;;;1.63;0.80;;;28.40;77.20;;;;;;5072971;28;20063;-58
2022/01/03 03:25:35;;;;;;;3.17;1.08;;;28.40;78.00;;;;;;5073410;28;20085;-58
2022/01/03 03:28:09;;;;;;;2.15;1.02;;;28.50;76.80;;;;;;5072925;28;20104;-57
2022/01/03 03:30:42;;;;;;;3.80;0.95;;;28.60;77.40;;;;;;5073293;28;20169;-57
2022/01/03 03:33:13;;;;;;;3.20;1.23;;;28.60;76.50;;;;;;5073168;28;20432;-56
2022/01/03 03:35:42;;;;;;;3.25;0.95;;;28.70;77.20;;;;;;5072765;28;20048;-61
2022/01/03 03:38:10;;;;;;;2.72;1.00;;;28.60;77.50;;;;;;5072505;28;20028;-58
2022/01/03 03:40:37;;;;;;;3.05;1.13;;;28.50;78.20;;;;;;5071840;28;20050;-58
2022/01/03 03:43:05;;;;;;;2.85;1.10;;;28.40;77.40;;;;;;5073247;28;20023;-57
2022/01/03 03:45:34;;;;;;;3.80;1.02;;;28.50;77.80;;;;;;5071972;28;20464;-58
2022/01/03 03:48:02;;;;;;;5.30;1.52;;;28.40;79.20;;;;;;5072571;28;20103;-57
2022/01/03 03:50:30;;;;;;;2.08;0.80;;;28.50;77.90;;;;;;5073684;28;20024;-57
2022/01/03 03:52:57;;;;;;;3.47;1.30;;;28.40;78.70;;;;;;5072549;28;20031;-55
2022/01/03 03:55:25;;;;;;;3.10;0.90;;;28.40;77.80;;;;;;5072607;28;20127;-61
2022/01/03 03:57:52;;;;;;;3.83;1.02;;;28.40;78.40;;;;;;5072527;28;20104;-53
2022/01/03 04:00:20;;;;;;;1.88;1.05;;;28.40;78.00;;;;;;5072645;28;20032;-57
2022/01/03 04:02:48;;;;;;;2.38;0.95;;;28.40;78.20;;;;;;5073019;28;20036;-59
2022/01/03 04:05:15;;;;;;;5.03;1.10;;;28.40;79.20;;;;;;5072779;28;20032;-55
2022/01/03 04:07:43;;;;;;;3.78;1.27;;;28.40;77.40;;;;;;5071898;28;20030;-56
2022/01/03 04:10:15;;;;;;;4.05;1.00;;;28.40;79.00;;;;;;5072548;28;20450;-60
2022/01/03 04:12:44;;;;;;;2.15;0.88;;;28.30;78.30;;;;;;5072582;28;20060;-58
2022/01/03 04:15:12;;;;;;;4.15;1.20;;;28.30;78.90;;;;;;5072498;28;20392;-57
2022/01/03 04:17:40;;;;;;;1.92;0.55;;;28.30;78.00;;;;;;5072768;28;20031;-57
2022/01/03 04:20:08;;;;;;;3.05;1.00;;;28.30;78.40;;;;;;5072852;28;20025;-59
2022/01/03 04:22:36;;;;;;;2.78;1.10;;;28.30;78.40;;;;;;5072725;28;20016;-60
2022/01/03 04:25:04;;;;;;;3.60;1.15;;;28.20;79.50;;;;;;5072579;28;20475;-54
2022/01/03 04:27:31;;;;;;;3.85;1.17;;;28.20;79.30;;;;;;5071033;28;20479;-56
2022/01/03 04:29:59;;;;;;;2.97;1.05;;;28.20;79.90;;;;;;5072344;28;20035;-59
2022/01/03 04:32:26;;;;;;;4.25;1.17;;;28.20;79.10;;;;;;5072349;28;20016;-59
2022/01/03 04:34:54;;;;;;;1.77;0.60;;;28.20;79.90;;;;;;5072413;28;20024;-60
2022/01/03 04:37:21;;;;;;;3.50;1.33;;;28.10;79.40;;;;;;5072038;28;20032;-60
2022/01/03 04:39:48;;;;;;;2.03;0.75;;;28.20;78.90;;;;;;5072405;28;20083;-54
2022/01/03 04:42:16;;;;;;;3.05;0.90;;;28.20;78.70;;;;;;5072401;28;20044;-60
2022/01/03 04:44:43;;;;;;;2.75;1.20;;;28.20;77.70;;;;;;5072059;28;20072;-59
2022/01/03 04:47:11;;;;;;;2.30;0.93;;;28.30;78.80;;;;;;5072128;28;20029;-59
2022/01/03 04:49:38;;;;;;;2.05;0.93;;;28.30;79.00;;;;;;5071254;28;20086;-58
2022/01/03 04:52:06;;;;;;;2.53;1.10;;;28.20;79.50;;;;;;5072479;28;20028;-58
2022/01/03 04:54:33;;;;;;;2.92;0.85;;;28.20;79.40;;;;;;5072285;28;20047;-59
2022/01/03 04:57:00;;;;;;;2.35;1.25;;;28.20;79.80;;;;;;5070931;28;20103;-53
2022/01/03 04:59:28;;;;;;;4.22;1.42;;;28.20;78.60;;;;;;5072254;28;20029;-58
2022/01/03 05:01:56;;;;;;;3.50;1.35;;;28.30;78.80;;;;;;5072002;28;20378;-58
2022/01/03 05:04:23;;;;;;;5.25;1.38;;;28.30;79.60;;;;;;5072212;28;20508;-59
2022/01/03 05:06:50;;;;;;;2.67;1.10;;;28.20;79.30;;;;;;5072094;28;20046;-61
2022/01/03 05:09:21;;;;;;;2.55;1.05;;;28.30;78.60;;;;;;5072081;28;20017;-61
2022/01/03 05:11:48;;;;;;;2.47;0.80;;;28.20;80.10;;;;;;5071446;28;20028;-57
2022/01/03 05:14:15;;;;;;;3.75;1.63;;;28.10;80.30;;;;;;5071899;28;20504;-58
2022/01/03 05:16:43;;;;;;;2.42;0.88;;;28.10;80.20;;;;;;5072285;28;20028;-59
2022/01/03 05:19:10;;;;;;;4.25;1.20;;;28.00;80.80;;;;;;5073344;28;20020;-62
2022/01/03 05:21:37;;;;;;;2.28;0.88;;;28.00;81.60;;;;;;5075538;28;20526;-57
2022/01/03 05:24:05;;;;;;;2.90;1.10;;;27.90;81.30;;;;;;5075306;28;20074;-56
2022/01/03 05:26:32;;;;;;;3.67;1.08;;;27.90;81.50;;;;;;5075379;28;20054;-56
2022/01/03 05:29:00;;;;;;;2.40;0.80;;;27.90;81.50;;;;;;5074416;28;20025;-59
2022/01/03 05:31:27;;;;;;;2.78;1.30;;;27.80;81.50;;;;;;5075725;28;20035;-60
2022/01/03 05:33:55;;;;;;;3.00;0.98;;;27.80;81.20;;;;;;5075247;28;20506;-58
2022/01/03 05:36:22;;;;;;;3.75;1.25;;;27.90;81.00;;;;;;5074032;28;20433;-59
2022/01/03 05:38:50;;;;;;;3.83;1.33;;;27.80;80.70;;;;;;5075658;28;20367;-58
2022/01/03 05:41:17;;;;;;;3.58;1.10;;;27.80;81.50;;;;;;5075737;28;20021;-58
2022/01/03 05:43:45;;;;;;;1.63;0.73;;;27.70;81.60;;;;;;5073974;28;20020;-59
2022/01/03 05:46:13;;;;;;;3.15;1.05;;;27.70;82.10;;;;;;5075100;28;20085;-60
2022/01/03 05:48:41;;;;;;;2.45;0.70;;;27.70;83.00;;;;;;5074906;28;20029;-60
2022/01/03 05:51:09;;;;;;;4.60;1.45;;;27.70;82.10;;;;;;5075061;28;20115;-56
2022/01/03 05:53:36;;;;;;;2.88;1.02;;;27.60;82.40;;;;;;5075080;28;20443;-59
2022/01/03 05:56:04;;;;;;;3.05;1.00;;;27.60;81.10;;;;;;5075040;28;20047;-57
2022/01/03 05:58:31;;;;;;;3.95;1.27;;;27.70;82.20;;;;;;5075217;28;20077;-60
2022/01/03 06:01:00;;;;;;;1.50;0.80;;;27.70;81.60;;;;;;5075298;28;20029;-56
2022/01/03 06:03:39;;;;;;;3.85;1.60;;;27.60;82.70;;;;;;5074934;28;20103;-60
2022/01/03 06:08:37;;;;;;;;;;;27.60;82.40;;;;;;5075467;28;20024;-58
2022/01/03 06:11:05;;;;;;;4.45;1.63;;;27.60;82.20;;;;;;5074981;28;19904;-60
2022/01/03 06:13:32;;;;;;;3.35;1.42;;;27.60;81.30;;;;;;5074704;28;20111;-58
2022/01/03 06:16:00;;;;;;;2.45;0.98;;;27.60;82.40;;;;;;5074353;28;20029;-60
2022/01/03 06:18:27;;;;;;;2.70;0.95;;;27.60;82.70;;;;;;5074799;28;20021;-61
2022/01/03 06:20:55;;;;;;;4.53;1.60;;;27.60;81.70;;;;;;5074692;28;20103;-58
2022/01/03 06:23:23;;;;;;;3.33;1.20;;;27.60;82.50;;;;;;5074142;28;20479;-61
2022/01/03 06:25:50;;;;;;;2.75;0.80;;;27.50;82.00;;;;;;5074968;28;20031;-56
2022/01/03 06:28:17;;;;;;;2.78;0.70;;;27.50;82.30;;;;;;5074652;28;20028;-62
2022/01/03 06:30:45;;;;;;;2.05;0.82;;;27.50;82.90;;;;;;5074512;28;20021;-57
2022/01/03 06:33:13;;;;;;;3.13;1.05;;;27.40;83.00;;;;;;5074143;28;20052;-60
2022/01/03 06:35:40;;;;;;;3.97;1.10;;;27.40;82.70;;;;;;5074400;28;20086;-58
2022/01/03 06:38:08;;;;;;;2.78;0.88;;;27.40;83.30;;;;;;5073876;28;20024;-61
2022/01/03 06:40:36;;;;;;;2.85;0.90;;;27.40;82.70;;;;;;5074511;28;20475;-60
2022/01/03 06:43:03;;;;;;;3.25;0.90;;;27.30;82.90;;;;;;5074481;28;20020;-61
2022/01/03 06:45:44;;;;;;;;;;;;;;;;;;;;;
2022/01/03 06:48:11;;;;;;;3.58;0.80;;;27.30;83.20;;;;;;5071801;28;20510;-58
2022/01/03 06:50:39;;;;;;;2.33;1.08;;;27.30;83.30;;;;;;5073778;28;20028;-59
2022/01/03 06:53:06;;;;;;;3.17;1.10;;;27.30;83.20;;;;;;5074157;28;20371;-58
2022/01/03 06:55:33;;;;;;;3.30;1.08;;;27.30;83.30;;;;;;5073576;28;20052;-54
2022/01/03 06:58:01;;;;;;;2.88;1.10;;;27.20;82.70;;;;;;5073575;28;20016;-54
2022/01/03 07:00:28;;;;;;;2.10;0.82;;;27.20;83.40;;;;;;5074211;28;20024;-60
2022/01/03 07:02:55;;;;;;;5.38;1.48;;;27.20;83.90;;;;;;5074291;28;20028;-60
2022/01/03 07:05:23;;;;;;;2.22;1.00;;;27.10;81.80;;;;;;5073950;28;20547;-60
2022/01/03 07:07:51;;;;;;;3.88;1.08;;;27.10;83.80;;;;;;5073712;28;20557;-59
2022/01/03 07:10:19;;;;;;;1.60;0.75;;;27.10;84.10;;;;;;5073548;28;20016;-60
2022/01/03 07:12:52;;;;;;;2.85;0.75;;;27.00;83.90;;;;;;5073996;28;20085;-60
2022/01/03 07:20:53;;;;;;;4.25;1.20;;;27.00;83.30;;;;;;5074026;28;20024;-58
2022/01/03 07:23:22;;;;;;;3.33;1.25;;;27.00;82.30;;;;;;5073738;28;20107;-60
2022/01/03 07:25:50;;;;;;;2.92;1.00;;;27.00;83.30;;;;;;5073449;28;20024;-54
2022/01/03 07:28:18;;;;;;;6.22;1.73;;;27.00;82.90;;;;;;5073356;28;20031;-61
2022/01/03 07:30:46;;;;;;;4.60;1.13;;;27.00;81.40;;;;;;5073302;28;20028;-53
2022/01/03 07:33:13;;;;;;;2.42;1.08;;;27.00;83.10;;;;;;5073213;28;20112;-61
2022/01/03 07:35:40;;;;;;;5.00;1.55;;;26.90;84.10;;;;;;5073081;28;20079;-58
2022/01/03 07:38:08;;;;;;;2.85;1.05;;;26.90;83.80;;;;;;5073270;28;20028;-58
2022/01/03 07:40:35;;;;;;;4.35;1.30;;;26.90;84.00;;;;;;5073078;28;20502;-59
2022/01/03 07:43:03;;;;;;;1.65;0.95;;;26.80;83.40;;;;;;5072954;28;20383;-60
2022/01/03 07:45:31;;;;;;;5.28;1.25;;;26.90;83.10;;;;;;5073257;28;20032;-55
2022/01/03 07:47:58;;;;;;;3.45;1.08;;;26.90;82.30;;;;;;5072877;28;20029;-60
2022/01/03 07:50:30;;;;;;;4.45;1.60;;;26.80;84.30;;;;;;5073255;28;20036;-60
2022/01/03 07:53:00;;;;;;;2.83;1.00;;;26.80;84.40;;;;;;5073442;28;20021;-58
2022/01/03 07:55:27;;;;;;;7.80;1.52;;;26.80;84.70;;;;;;5072924;28;20568;-58
2022/01/03 07:57:55;;;;;;;3.83;1.23;;;26.80;84.30;;;;;;5072725;28;20371;-54
2022/01/03 08:00:22;;;;;;;2.33;1.00;;;26.80;84.30;;;;;;5073174;28;20127;-57
2022/01/03 08:02:50;;;;;;;2.78;1.00;;;26.80;83.80;;;;;;5072909;28;20169;-60
2022/01/03 08:05:17;;;;;;;2.13;1.00;;;26.80;84.80;;;;;;5072931;28;20492;-60
2022/01/03 08:07:48;;;;;;;1.65;1.10;;;26.70;84.70;;;;;;5072899;28;20075;-57
2022/01/03 08:10:16;;;;;;;2.70;0.80;;;26.70;84.50;;;;;;5073077;28;20028;-59
2022/01/03 08:12:44;;;;;;;2.85;1.00;;;26.70;84.50;;;;;;5071687;28;20033;-61
2022/01/03 08:15:12;;;;;;;2.78;1.13;;;26.70;84.50;;;;;;5073039;28;20534;-57
2022/01/03 08:17:39;;;;;;;2.50;1.05;;;26.60;84.60;;;;;;5073185;28;20024;-59
2022/01/03 08:20:08;;;;;;;3.40;0.98;;;26.60;84.70;;;;;;5072524;28;20029;-58
2022/01/03 08:22:35;;;;;;;3.88;1.10;;;26.60;84.40;;;;;;5072430;28;20024;-59
2022/01/03 08:25:03;;;;;;;3.58;1.10;;;26.60;84.60;;;;;;5072645;28;20028;-60
2022/01/03 08:27:30;;;;;;;2.88;0.90;;;26.60;84.80;;;;;;5072685;28;20431;-58
2022/01/03 08:29:57;;;;;;;2.88;1.48;;;26.60;84.70;;;;;;5072456;28;20025;-57
2022/01/03 08:32:25;;;;;;;3.63;1.27;;;26.60;84.70;;;;;;5071285;28;20429;-55
2022/01/03 08:34:52;;;;;;;3.08;1.10;;;26.50;84.30;;;;;;5072702;28;20107;-57
2022/01/03 08:37:20;;;;;;;4.85;1.30;;;26.50;84.20;;;;;;5072802;28;20049;-58
2022/01/03 08:39:47;;;;;;;3.10;1.38;;;26.50;83.90;;;;;;5071409;28;20107;-60
2022/01/03 08:42:15;;;;;;;6.47;1.73;;;26.50;83.60;;;;;;5071202;28;20021;-61
2022/01/03 08:44:42;;;;;;;2.47;1.23;;;26.50;84.30;;;;;;5072558;28;20052;-59
2022/01/03 08:47:09;;;;;;;3.95;1.13;;;26.50;84.70;;;;;;5072369;28;20021;-59
2022/01/03 08:49:37;;;;;;;2.97;1.08;;;26.40;84.20;;;;;;5072824;28;20111;-67
2022/01/03 08:52:05;;;;;;;1.88;0.90;;;26.40;84.60;;;;;;5071985;28;20020;-59
2022/01/03 08:54:33;;;;;;;2.35;0.93;;;26.40;84.80;;;;;;5075783;28;20048;-58
2022/01/03 08:57:01;;;;;;;3.53;1.17;;;26.40;84.70;;;;;;5076790;28;20029;-63
2022/01/03 08:59:28;;;;;;;3.28;1.00;;;26.40;84.80;;;;;;5076462;28;20035;-54
2022/01/03 09:01:55;;;;;;;3.55;1.30;;;26.30;84.80;;;;;;5076191;28;20552;-56
2022/01/03 09:04:23;;;;;;;2.97;1.02;;;26.30;84.90;;;;;;5076295;28;20035;-59
2022/01/03 09:06:52;;;;;;;4.20;1.35;;;26.30;84.70;;;;;;5076082;28;20025;-61
2022/01/03 09:09:19;;;;;;;2.97;1.00;;;26.30;84.60;;;;;;5076110;28;20412;-59
2022/01/03 09:11:47;;;;;;;2.92;1.42;;;26.30;84.20;;;;;;5073635;28;20027;-62
2022/01/03 09:14:14;;;;;;;4.93;1.50;;;26.20;84.30;;;;;;5075716;28;20029;-61
2022/01/03 09:16:42;;;;;;;4.05;1.50;;;26.20;84.40;;;;;;5076121;28;20105;-57
2022/01/03 09:19:09;;;;;;;2.90;1.27;;;26.20;84.30;;;;;;5076162;28;20028;-59
2022/01/03 09:21:36;;;;;;;3.92;1.50;;;26.10;84.30;;;;;;5075607;28;20036;-60
2022/01/03 09:24:23;;;;;;;4.63;1.55;;;26.10;84.40;;;;;;5075546;28;20028;-61
2022/01/03 09:29:36;;;;;;;2.10;1.08;;;26.10;84.70;;;;;;5075751;28;20099;-59
2022/01/03 09:32:04;;;;;;;3.53;1.13;;;26.10;84.80;;;;;;5075521;28;20056;-57
2022/01/03 09:34:31;;;;;;;3.17;1.40;;;26.10;84.70;;;;;;5075544;28;20052;-59
2022/01/03 09:36:59;;;;;;;1.95;1.27;;;26.10;84.40;;;;;;5075337;28;20033;-59
2022/01/03 09:39:26;;;;;;;4.10;1.27;;;26.10;85.00;;;;;;5075635;28;20029;-59
2022/01/03 09:41:57;;;;;;;2.53;0.88;;;26.00;85.00;;;;;;5075643;28;20467;-59
2022/01/03 09:44:30;;;;;;;4.23;1.40;;;26.00;85.00;;;;;;5075734;28;20475;-59
2022/01/03 09:47:02;;;;;;;3.10;1.42;;;26.00;84.90;;;;;;5075755;28;20275;-61
2022/01/03 09:49:38;;;;;;;3.33;1.30;;;26.00;84.40;;;;;;5075805;28;20035;-53
2022/01/03 09:52:08;;;;;;;2.42;1.00;;;26.00;84.90;;;;;;5074983;28;20036;-60
2022/01/03 09:54:37;;;;;;;4.15;1.40;;;26.00;84.80;;;;;;5075412;28;20049;-59
2022/01/03 09:57:15;;;;;;;1.67;0.85;;;26.00;84.90;;;;;;5075709;28;20028;-60
2022/01/03 09:59:45;;;;;;;3.22;1.17;;;25.90;85.00;;;;;;5074167;28;20079;-62
2022/01/03 10:02:16;;;;;;;3.35;1.10;;;25.90;85.10;;;;;;5073672;28;20021;-57
2022/01/03 10:04:44;;;;;;;2.35;1.10;;;25.90;84.60;;;;;;5074392;28;20502;-60
2022/01/03 10:07:14;;;;;;;2.53;1.00;;;25.90;84.80;;;;;;5074960;28;20504;-60
2022/01/03 10:09:42;;;;;;;4.05;1.05;;;25.90;84.80;;;;;;5075288;28;20032;-59
2022/01/03 10:12:14;;;;;;;3.05;1.20;;;25.80;84.80;;;;;;5074838;28;20029;-57
2022/01/03 10:14:43;;;;;;;2.97;1.30;;;25.80;84.90;;;;;;5074857;28;20398;-55
2022/01/03 10:17:11;;;;;;;2.30;1.17;;;25.80;84.80;;;;;;5073790;28;20025;-55
2022/01/03 10:19:56;;;;;;;2.60;1.00;;;25.80;84.90;;;;;;5074776;28;20029;-54
2022/01/03 10:22:31;;;;;;;2.80;1.40;;;25.80;85.00;;;;;;5074843;28;20450;-59
2022/01/03 10:25:01;;;;;;;2.28;0.90;;;25.80;84.90;;;;;;5074778;28;20021;-57
2022/01/03 10:27:54;;;;;;;2.92;1.23;;;25.70;84.80;;;;;;5074660;28;20446;-57
2022/01/03 10:30:40;;;;;;;3.05;1.08;;;25.80;85.20;;;;;;5074546;28;20086;-57
2022/01/03 10:33:13;;;;;;;1.08;0.65;;;25.70;84.90;;;;;;5074478;28;20470;-56
2022/01/03 10:35:48;;;;;;;3.58;1.15;;;25.70;84.70;;;;;;5074172;28;20044;-54
2022/01/03 10:38:34;;;;;;;2.75;1.05;;;25.70;84.90;;;;;;5074054;28;20093;-55
2022/01/03 10:41:18;;;;;;;1.80;0.80;;;25.70;84.90;;;;;;5074665;28;20101;-52
2022/01/03 10:43:51;;;;;;;2.88;1.00;;;25.70;85.10;;;;;;5074124;28;20131;-50
2022/01/03 10:46:24;;;;;;;3.42;1.15;;;25.60;84.90;;;;;;5073270;28;20021;-56
2022/01/03 10:49:19;;;;;;;2.75;1.20;;;25.60;85.10;;;;;;5074148;28;20051;-59
2022/01/03 10:51:48;;;;;;;4.05;1.45;;;25.60;85.00;;;;;;5073703;28;20078;-53
2022/01/03 10:54:18;;;;;;;2.75;1.20;;;25.60;84.90;;;;;;5073661;28;20436;-60
2022/01/03 10:56:50;;;;;;;3.67;0.98;;;25.60;85.10;;;;;;5073854;28;20029;-57
2022/01/03 10:59:26;;;;;;;3.30;1.30;;;25.50;85.00;;;;;;5074058;28;20033;-59
2022/01/03 11:02:02;;;;;;;3.28;1.27;;;25.60;85.30;;;;;;5073636;28;20108;-60
2022/01/03 11:04:34;;;;;;;2.70;1.00;;;25.60;85.20;;;;;;5074201;28;20017;-60
2022/01/03 11:13:15;;;;;;;4.78;1.65;;;25.50;84.90;;;;;;5074390;28;20078;-61
2022/01/03 11:15:57;;;;;;;3.33;1.10;;;25.50;85.10;;;;;;5073773;28;20111;-56
2022/01/03 11:18:33;;;;;;;3.85;1.17;;;25.50;85.00;;;;;;5074030;28;20417;-59
2022/01/03 11:21:16;;;;;;;3.63;1.30;;;25.50;84.80;;;;;;5073539;28;20032;-60
2022/01/03 11:24:03;;;;;;;2.22;1.05;;;25.50;85.00;;;;;;5073731;28;20039;-56
2022/01/03 11:26:33;;;;;;;3.00;1.08;;;25.50;85.20;;;;;;5073112;28;20487;-56
2022/01/03 11:29:02;;;;;;;2.88;1.15;;;25.50;85.30;;;;;;5072936;28;20036;-57
2022/01/03 11:31:33;;;;;;;2.00;1.13;;;25.40;85.00;;;;;;5074025;28;20121;-53
2022/01/03 11:34:01;;;;;;;2.78;1.15;;;25.50;85.20;;;;;;5073716;28;20029;-58
2022/01/03 11:36:30;;;;;;;3.08;1.20;;;25.50;85.10;;;;;;5073342;28;20068;-59
2022/01/03 11:39:16;;;;;;;3.78;1.50;;;25.40;85.10;;;;;;5073380;28;20016;-54
2022/01/03 11:41:45;;;;;;;2.72;1.27;;;25.40;85.10;;;;;;5073207;28;20055;-60
2022/01/03 11:44:15;;;;;;;2.53;1.10;;;25.40;85.10;;;;;;5073447;28;20479;-56
2022/01/03 11:46:47;;;;;;;3.58;1.45;;;25.40;85.20;;;;;;5073261;28;20036;-58
2022/01/03 11:49:22;;;;;;;3.00;1.20;;;25.40;84.70;;;;;;5073569;28;20021;-58
2022/01/03 11:51:59;;;;;;;3.42;1.33;;;25.30;85.30;;;;;;5073387;28;20044;-59
2022/01/03 11:54:27;;;;;;;3.22;1.23;;;25.40;85.30;;;;;;5073530;28;20495;-59
2022/01/03 11:57:26;;;;;;;3.42;1.10;;;25.30;85.30;;;;;;5073455;28;20056;-52
2022/01/03 12:05:59;;;;;;;3.45;1.40;;;25.30;85.40;;;;;;5072956;28;20474;-57
2022/01/03 12:08:38;;;;;;;3.28;1.20;;;25.30;85.40;;;;;;5073389;28;20021;-59
2022/01/03 12:11:23;;;;;;;2.40;1.05;;;25.30;85.30;;;;;;5072838;28;20038;-54
2022/01/03 12:13:56;;;;;;;2.78;1.10;;;25.20;85.40;;;;;;5073560;28;20021;-58
2022/01/03 12:17:16;;;;;;;2.97;1.08;;;25.20;85.10;;;;;;5073408;28;20039;-60
2022/01/03 12:19:47;;;;;;;3.50;1.20;;;25.20;85.30;;;;;;5065784;28;20055;-57
2022/01/03 12:22:18;;;;;;;3.03;1.48;;;25.20;85.40;;;;;;5072923;28;20032;-60
2022/01/03 12:24:52;;;;;;;2.40;1.40;;;25.20;85.50;;;;;;5069739;28;20032;-58
2022/01/03 12:27:28;;;;;;;3.30;1.15;;;25.20;85.50;;;;;;5073181;28;20089;-59
2022/01/03 12:29:56;;;;;;;4.40;1.60;;;25.20;85.60;;;;;;5076671;28;20091;-58
2022/01/03 12:32:30;;;;;;;1.98;0.90;;;25.20;85.50;;;;;;5077447;28;20058;-61
2022/01/03 12:35:21;;;;;;;2.92;1.20;;;25.20;85.60;;;;;;5076638;28;20040;-60
2022/01/03 12:37:54;;;;;;;2.33;1.13;;;25.20;85.50;;;;;;5077171;28;20024;-62
2022/01/03 12:40:44;;;;;;;2.40;1.00;;;25.10;85.60;;;;;;5077123;28;20032;-59
2022/01/03 12:43:13;;;;;;;3.63;1.67;;;25.20;85.60;;;;;;5071646;28;20040;-59
2022/01/03 12:45:43;;;;;;;2.88;1.17;;;25.10;85.60;;;;;;5077065;28;20028;-55
2022/01/03 12:50:51;;;;;;;2.55;1.13;;;25.10;85.50;;;;;;5077019;28;20107;-56
2022/01/03 12:53:37;;;;;;;4.38;1.60;;;25.10;85.30;;;;;;5076798;28;20490;-63
2022/01/03 12:56:13;;;;;;;3.30;1.40;;;25.10;85.70;;;;;;5076602;28;20045;-54
2022/01/03 12:58:52;;;;;;;1.88;0.95;;;25.10;85.70;;;;;;5077071;28;20124;-63
2022/01/03 13:01:19;;;;;;;5.45;1.40;;;25.10;85.60;;;;;;5077228;28;20036;-59
2022/01/03 13:03:52;;;;;;;1.98;1.05;;;25.10;85.70;;;;;;5076389;28;20102;-58
2022/01/03 13:06:30;;;;;;;2.67;1.10;;;25.10;85.70;;;;;;5076265;28;20078;-61
2022/01/03 13:08:57;;;;;;;2.35;1.20;;;25.10;85.60;;;;;;5076414;28;20019;-61
2022/01/03 13:11:30;;;;;;;3.70;1.15;;;25.00;85.90;;;;;;5076287;28;20039;-55
2022/01/03 13:14:07;;;;;;;3.13;1.23;;;25.00;85.80;;;;;;5076376;28;20028;-54
2022/01/03 13:16:45;;;;;;;2.80;1.02;;;25.00;85.90;;;;;;5076663;28;20040;-62
2022/01/03 13:19:33;;;;;;;3.67;0.98;;;25.00;85.80;;;;;;5076387;28;20115;-57
2022/01/03 13:22:01;;;;;;;3.70;1.38;;;25.00;85.90;;;;;;5075839;28;20124;-57
2022/01/03 13:24:45;;;;;;;2.95;1.02;;;25.00;85.60;;;;;;5076377;28;20099;-61
2022/01/03 13:27:18;;;;;;;2.72;0.95;;;25.00;86.00;;;;;;5075950;28;20032;-59
2022/01/03 13:29:54;;;;;;;3.88;1.30;;;25.00;86.00;;;;;;5076052;28;20017;-58
2022/01/03 13:32:36;;;;;;;2.92;1.00;;;24.90;86.00;;;;;;5075683;28;20101;-57
2022/01/03 13:35:07;;;;;;;3.97;1.50;;;24.90;86.10;;;;;;5076316;28;20033;-60